Arundel, United Kingdom
Current Conditions -  °F | °C
As of 1:20 PM on Sunday 23 Nov 2014 (Local Time) from EGKA Reporting Station
Light Rain Light Rain  
Wind Chill: 40°   Ceiling: 3200
Heat Index: 46°   Visibility: 5mi
Dew Point: 46°   Wind: 16mph
Humidity: 100%   Direction: 350°N
Pressure: 29.97"   Gusts: NA
Location:  50.85°N, 0.55°W
Report Text: EGKA 231320Z 35014KT 8000 -RA FEW008 SCT020 BKN032 08/08 Q1015 RERA
Loading
Personal Weather Stations






























Interactive Weather Map New forecast layout! Learn more

10-Day Weather Forecast

Advertisements
Track Severe Weather on mobile